sensor_id;sensor_type;location;lat;lon;timestamp;P1;durP1;ratioP1;P2;durP2;ratioP2
44068;SDS011;29738;51.234;5.484;2022-08-01T00:01:34;11.65;;;6.70;;
44068;SDS011;29738;51.234;5.484;2022-08-01T00:04:00;11.82;;;5.85;;
44068;SDS011;29738;51.234;5.484;2022-08-01T00:06:26;10.15;;;5.85;;
44068;SDS011;29738;51.234;5.484;2022-08-01T00:08:52;10.05;;;6.07;;
44068;SDS011;29738;51.234;5.484;2022-08-01T00:11:18;10.25;;;6.10;;
44068;SDS011;29738;51.234;5.484;2022-08-01T00:13:44;10.90;;;6.90;;
44068;SDS011;29738;51.234;5.484;2022-08-01T00:16:10;9.10;;;6.05;;
44068;SDS011;29738;51.234;5.484;2022-08-01T00:18:35;10.30;;;5.65;;
44068;SDS011;29738;51.234;5.484;2022-08-01T00:21:02;11.38;;;6.70;;
44068;SDS011;29738;51.234;5.484;2022-08-01T00:23:29;11.80;;;6.95;;
44068;SDS011;29738;51.234;5.484;2022-08-01T00:25:55;13.50;;;8.20;;
44068;SDS011;29738;51.234;5.484;2022-08-01T00:28:21;13.70;;;8.77;;
44068;SDS011;29738;51.234;5.484;2022-08-01T00:30:46;15.30;;;9.63;;
44068;SDS011;29738;51.234;5.484;2022-08-01T00:33:12;12.75;;;8.63;;
44068;SDS011;29738;51.234;5.484;2022-08-01T00:35:38;11.95;;;7.82;;
44068;SDS011;29738;51.234;5.484;2022-08-01T00:38:04;13.85;;;7.43;;
44068;SDS011;29738;51.234;5.484;2022-08-01T00:40:29;11.15;;;7.30;;
44068;SDS011;29738;51.234;5.484;2022-08-01T00:42:55;11.70;;;7.00;;
44068;SDS011;29738;51.234;5.484;2022-08-01T00:45:21;10.65;;;6.18;;
44068;SDS011;29738;51.234;5.484;2022-08-01T00:47:47;10.88;;;6.60;;
44068;SDS011;29738;51.234;5.484;2022-08-01T00:50:12;10.50;;;6.20;;
44068;SDS011;29738;51.234;5.484;2022-08-01T00:52:39;11.15;;;6.28;;
44068;SDS011;29738;51.234;5.484;2022-08-01T00:55:06;10.60;;;5.78;;
44068;SDS011;29738;51.234;5.484;2022-08-01T00:57:32;11.88;;;6.43;;
44068;SDS011;29738;51.234;5.484;2022-08-01T00:59:58;11.60;;;5.60;;
44068;SDS011;29738;51.234;5.484;2022-08-01T01:02:24;11.88;;;6.30;;
44068;SDS011;29738;51.234;5.484;2022-08-01T01:04:50;9.55;;;5.57;;
44068;SDS011;29738;51.234;5.484;2022-08-01T01:07:18;11.68;;;6.47;;
44068;SDS011;29738;51.234;5.484;2022-08-01T01:10:19;11.63;;;6.30;;
44068;SDS011;29738;51.234;5.484;2022-08-01T01:18:00;13.30;;;6.60;;
44068;SDS011;29738;51.234;5.484;2022-08-01T01:20:40;9.68;;;5.95;;
44068;SDS011;29738;51.234;5.484;2022-08-01T01:23:12;12.18;;;5.85;;
44068;SDS011;29738;51.234;5.484;2022-08-01T01:28:35;8.45;;;5.15;;
44068;SDS011;29738;51.234;5.484;2022-08-01T01:31:40;10.65;;;6.13;;
44068;SDS011;29738;51.234;5.484;2022-08-01T01:34:09;11.85;;;5.65;;
44068;SDS011;29738;51.234;5.484;2022-08-01T01:36:38;8.73;;;4.85;;
44068;SDS011;29738;51.234;5.484;2022-08-01T01:39:04;9.75;;;5.82;;
44068;SDS011;29738;51.234;5.484;2022-08-01T01:41:32;10.32;;;4.97;;
44068;SDS011;29738;51.234;5.484;2022-08-01T01:43:59;11.68;;;5.53;;
44068;SDS011;29738;51.234;5.484;2022-08-01T01:46:26;13.73;;;5.88;;
44068;SDS011;29738;51.234;5.484;2022-08-01T01:48:55;8.15;;;5.00;;
44068;SDS011;29738;51.234;5.484;2022-08-01T01:51:22;10.77;;;5.03;;
44068;SDS011;29738;51.234;5.484;2022-08-01T01:53:50;10.30;;;5.28;;
44068;SDS011;29738;51.234;5.484;2022-08-01T01:56:19;10.07;;;4.75;;
44068;SDS011;29738;51.234;5.484;2022-08-01T01:58:48;10.10;;;5.00;;
44068;SDS011;29738;51.234;5.484;2022-08-01T02:03:46;9.25;;;5.28;;
44068;SDS011;29738;51.234;5.484;2022-08-01T02:06:14;9.25;;;4.82;;
44068;SDS011;29738;51.234;5.484;2022-08-01T02:08:42;12.95;;;5.57;;
44068;SDS011;29738;51.234;5.484;2022-08-01T02:11:08;14.25;;;6.60;;
44068;SDS011;29738;51.234;5.484;2022-08-01T02:13:44;12.60;;;6.32;;
44068;SDS011;29738;51.234;5.484;2022-08-01T02:16:21;15.15;;;8.07;;
44068;SDS011;29738;51.234;5.484;2022-08-01T02:18:49;15.57;;;8.68;;
44068;SDS011;29738;51.234;5.484;2022-08-01T02:21:16;20.88;;;9.05;;
44068;SDS011;29738;51.234;5.484;2022-08-01T02:23:50;18.40;;;8.50;;
44068;SDS011;29738;51.234;5.484;2022-08-01T02:26:17;20.35;;;9.30;;
44068;SDS011;29738;51.234;5.484;2022-08-01T02:28:48;14.98;;;7.55;;
44068;SDS011;29738;51.234;5.484;2022-08-01T02:31:19;15.07;;;8.40;;
44068;SDS011;29738;51.234;5.484;2022-08-01T02:33:50;18.08;;;8.38;;
44068;SDS011;29738;51.234;5.484;2022-08-01T02:36:29;15.40;;;9.00;;
44068;SDS011;29738;51.234;5.484;2022-08-01T02:38:59;12.82;;;7.63;;
44068;SDS011;29738;51.234;5.484;2022-08-01T02:41:28;16.88;;;7.93;;
44068;SDS011;29738;51.234;5.484;2022-08-01T02:43:56;18.00;;;8.43;;
44068;SDS011;29738;51.234;5.484;2022-08-01T02:46:28;17.90;;;8.57;;
44068;SDS011;29738;51.234;5.484;2022-08-01T02:49:04;15.73;;;9.23;;
44068;SDS011;29738;51.234;5.484;2022-08-01T02:51:33;15.20;;;8.07;;
44068;SDS011;29738;51.234;5.484;2022-08-01T02:54:01;13.90;;;8.15;;
44068;SDS011;29738;51.234;5.484;2022-08-01T02:56:29;14.55;;;8.02;;
44068;SDS011;29738;51.234;5.484;2022-08-01T02:59:01;16.57;;;9.27;;
44068;SDS011;29738;51.234;5.484;2022-08-01T03:01:29;16.63;;;9.32;;
44068;SDS011;29738;51.234;5.484;2022-08-01T03:03:56;17.30;;;8.82;;
44068;SDS011;29738;51.234;5.484;2022-08-01T03:06:22;16.20;;;9.27;;
44068;SDS011;29738;51.234;5.484;2022-08-01T03:08:49;19.67;;;9.52;;
44068;SDS011;29738;51.234;5.484;2022-08-01T03:11:17;19.13;;;9.18;;
44068;SDS011;29738;51.234;5.484;2022-08-01T03:13:44;20.08;;;10.27;;
44068;SDS011;29738;51.234;5.484;2022-08-01T03:16:12;21.55;;;9.98;;
44068;SDS011;29738;51.234;5.484;2022-08-01T03:18:40;20.52;;;9.60;;
44068;SDS011;29738;51.234;5.484;2022-08-01T03:21:09;20.95;;;9.70;;
44068;SDS011;29738;51.234;5.484;2022-08-01T03:23:38;17.13;;;9.25;;
44068;SDS011;29738;51.234;5.484;2022-08-01T03:26:06;18.58;;;9.77;;
44068;SDS011;29738;51.234;5.484;2022-08-01T03:28:33;17.70;;;9.57;;
44068;SDS011;29738;51.234;5.484;2022-08-01T03:31:00;19.90;;;9.55;;
44068;SDS011;29738;51.234;5.484;2022-08-01T03:33:28;21.48;;;10.38;;
44068;SDS011;29738;51.234;5.484;2022-08-01T03:35:54;19.83;;;10.23;;
44068;SDS011;29738;51.234;5.484;2022-08-01T03:38:24;21.00;;;10.05;;
44068;SDS011;29738;51.234;5.484;2022-08-01T03:41:26;19.40;;;8.93;;
44068;SDS011;29738;51.234;5.484;2022-08-01T03:43:56;17.50;;;9.32;;
44068;SDS011;29738;51.234;5.484;2022-08-01T03:46:30;17.50;;;8.38;;
44068;SDS011;29738;51.234;5.484;2022-08-01T03:49:03;17.90;;;9.43;;
44068;SDS011;29738;51.234;5.484;2022-08-01T03:51:32;19.85;;;9.10;;
44068;SDS011;29738;51.234;5.484;2022-08-01T03:53:59;18.42;;;9.38;;
44068;SDS011;29738;51.234;5.484;2022-08-01T03:56:26;18.00;;;9.50;;
44068;SDS011;29738;51.234;5.484;2022-08-01T03:58:56;19.50;;;9.63;;
44068;SDS011;29738;51.234;5.484;2022-08-01T04:01:24;16.42;;;8.43;;
44068;SDS011;29738;51.234;5.484;2022-08-01T04:03:51;20.20;;;9.77;;
44068;SDS011;29738;51.234;5.484;2022-08-01T04:06:17;19.30;;;9.15;;
44068;SDS011;29738;51.234;5.484;2022-08-01T04:08:43;21.58;;;10.82;;
44068;SDS011;29738;51.234;5.484;2022-08-01T04:11:20;19.02;;;9.90;;
44068;SDS011;29738;51.234;5.484;2022-08-01T04:13:47;18.65;;;9.70;;
44068;SDS011;29738;51.234;5.484;2022-08-01T04:16:13;17.83;;;9.27;;
44068;SDS011;29738;51.234;5.484;2022-08-01T04:18:39;20.75;;;9.85;;
44068;SDS011;29738;51.234;5.484;2022-08-01T04:21:05;19.55;;;10.57;;
44068;SDS011;29738;51.234;5.484;2022-08-01T04:23:30;21.35;;;10.02;;
44068;SDS011;29738;51.234;5.484;2022-08-01T04:25:59;22.20;;;10.18;;
44068;SDS011;29738;51.234;5.484;2022-08-01T04:28:29;22.00;;;10.18;;
44068;SDS011;29738;51.234;5.484;2022-08-01T04:30:59;19.40;;;9.82;;
44068;SDS011;29738;51.234;5.484;2022-08-01T04:33:26;24.05;;;10.90;;
44068;SDS011;29738;51.234;5.484;2022-08-01T04:35:54;22.15;;;10.15;;
44068;SDS011;29738;51.234;5.484;2022-08-01T04:38:23;21.98;;;10.95;;
44068;SDS011;29738;51.234;5.484;2022-08-01T04:40:54;24.80;;;10.38;;
44068;SDS011;29738;51.234;5.484;2022-08-01T04:43:21;22.63;;;10.88;;
44068;SDS011;29738;51.234;5.484;2022-08-01T04:45:47;21.25;;;10.50;;
44068;SDS011;29738;51.234;5.484;2022-08-01T04:48:16;20.65;;;9.85;;
44068;SDS011;29738;51.234;5.484;2022-08-01T04:50:44;22.52;;;10.95;;
44068;SDS011;29738;51.234;5.484;2022-08-01T04:53:14;22.17;;;11.13;;
44068;SDS011;29738;51.234;5.484;2022-08-01T04:55:42;24.45;;;11.77;;
44068;SDS011;29738;51.234;5.484;2022-08-01T04:58:09;21.08;;;11.05;;
44068;SDS011;29738;51.234;5.484;2022-08-01T05:00:35;22.45;;;10.73;;
44068;SDS011;29738;51.234;5.484;2022-08-01T05:03:01;25.98;;;11.77;;
44068;SDS011;29738;51.234;5.484;2022-08-01T05:05:27;23.58;;;11.25;;
44068;SDS011;29738;51.234;5.484;2022-08-01T05:07:53;21.70;;;10.45;;
44068;SDS011;29738;51.234;5.484;2022-08-01T05:10:20;23.73;;;10.65;;
44068;SDS011;29738;51.234;5.484;2022-08-01T05:12:46;18.02;;;9.60;;
44068;SDS011;29738;51.234;5.484;2022-08-01T05:15:12;21.58;;;10.50;;
44068;SDS011;29738;51.234;5.484;2022-08-01T05:17:38;22.50;;;10.30;;
44068;SDS011;29738;51.234;5.484;2022-08-01T05:20:04;21.75;;;10.13;;
44068;SDS011;29738;51.234;5.484;2022-08-01T05:22:31;19.13;;;10.27;;
44068;SDS011;29738;51.234;5.484;2022-08-01T05:24:57;20.05;;;9.95;;
44068;SDS011;29738;51.234;5.484;2022-08-01T05:27:24;21.90;;;9.73;;
44068;SDS011;29738;51.234;5.484;2022-08-01T05:29:50;19.52;;;9.18;;
44068;SDS011;29738;51.234;5.484;2022-08-01T05:32:16;19.30;;;9.02;;
44068;SDS011;29738;51.234;5.484;2022-08-01T05:34:42;19.90;;;9.25;;
44068;SDS011;29738;51.234;5.484;2022-08-01T05:37:08;17.10;;;8.75;;
44068;SDS011;29738;51.234;5.484;2022-08-01T05:39:34;15.63;;;8.23;;
44068;SDS011;29738;51.234;5.484;2022-08-01T05:42:00;14.25;;;7.90;;
44068;SDS011;29738;51.234;5.484;2022-08-01T05:44:26;17.95;;;7.45;;
44068;SDS011;29738;51.234;5.484;2022-08-01T05:46:52;15.40;;;7.70;;
44068;SDS011;29738;51.234;5.484;2022-08-01T05:49:17;16.85;;;8.25;;
44068;SDS011;29738;51.234;5.484;2022-08-01T05:51:43;16.70;;;8.15;;
44068;SDS011;29738;51.234;5.484;2022-08-01T05:54:09;15.73;;;7.20;;
44068;SDS011;29738;51.234;5.484;2022-08-01T05:56:35;15.10;;;7.88;;
44068;SDS011;29738;51.234;5.484;2022-08-01T05:59:00;19.38;;;8.60;;
44068;SDS011;29738;51.234;5.484;2022-08-01T06:01:27;17.20;;;8.05;;
44068;SDS011;29738;51.234;5.484;2022-08-01T06:03:52;16.02;;;8.30;;
44068;SDS011;29738;51.234;5.484;2022-08-01T06:06:19;17.23;;;9.02;;
44068;SDS011;29738;51.234;5.484;2022-08-01T06:08:46;15.52;;;8.48;;
44068;SDS011;29738;51.234;5.484;2022-08-01T06:11:12;19.45;;;8.23;;
44068;SDS011;29738;51.234;5.484;2022-08-01T06:13:37;16.23;;;8.68;;
44068;SDS011;29738;51.234;5.484;2022-08-01T06:16:03;18.70;;;9.23;;
44068;SDS011;29738;51.234;5.484;2022-08-01T06:18:29;17.17;;;8.55;;
44068;SDS011;29738;51.234;5.484;2022-08-01T06:20:55;16.80;;;8.70;;
44068;SDS011;29738;51.234;5.484;2022-08-01T06:23:21;15.18;;;8.68;;
44068;SDS011;29738;51.234;5.484;2022-08-01T06:25:47;16.08;;;8.52;;
44068;SDS011;29738;51.234;5.484;2022-08-01T06:28:13;17.02;;;8.48;;
44068;SDS011;29738;51.234;5.484;2022-08-01T06:30:39;18.23;;;9.48;;
44068;SDS011;29738;51.234;5.484;2022-08-01T06:33:05;14.85;;;8.55;;
44068;SDS011;29738;51.234;5.484;2022-08-01T06:35:31;17.13;;;8.65;;
44068;SDS011;29738;51.234;5.484;2022-08-01T06:37:57;16.20;;;8.90;;
44068;SDS011;29738;51.234;5.484;2022-08-01T06:40:23;16.42;;;8.85;;
44068;SDS011;29738;51.234;5.484;2022-08-01T06:42:49;14.40;;;8.25;;
44068;SDS011;29738;51.234;5.484;2022-08-01T06:45:15;17.20;;;9.70;;
44068;SDS011;29738;51.234;5.484;2022-08-01T06:47:42;16.98;;;10.15;;
44068;SDS011;29738;51.234;5.484;2022-08-01T06:50:09;15.45;;;9.48;;
44068;SDS011;29738;51.234;5.484;2022-08-01T06:52:36;17.73;;;9.73;;
44068;SDS011;29738;51.234;5.484;2022-08-01T06:55:02;16.55;;;9.35;;
44068;SDS011;29738;51.234;5.484;2022-08-01T06:57:29;16.70;;;9.77;;
44068;SDS011;29738;51.234;5.484;2022-08-01T06:59:55;12.52;;;6.75;;
44068;SDS011;29738;51.234;5.484;2022-08-01T07:02:21;17.17;;;9.93;;
44068;SDS011;29738;51.234;5.484;2022-08-01T07:04:47;19.40;;;9.98;;
44068;SDS011;29738;51.234;5.484;2022-08-01T07:07:13;19.80;;;10.35;;
44068;SDS011;29738;51.234;5.484;2022-08-01T07:09:39;17.42;;;9.77;;
44068;SDS011;29738;51.234;5.484;2022-08-01T07:12:06;17.38;;;9.45;;
44068;SDS011;29738;51.234;5.484;2022-08-01T07:14:32;15.55;;;9.63;;
44068;SDS011;29738;51.234;5.484;2022-08-01T07:16:58;17.00;;;9.32;;
44068;SDS011;29738;51.234;5.484;2022-08-01T07:19:24;16.73;;;9.18;;
44068;SDS011;29738;51.234;5.484;2022-08-01T07:21:50;15.48;;;8.93;;
44068;SDS011;29738;51.234;5.484;2022-08-01T07:24:17;15.65;;;8.80;;
44068;SDS011;29738;51.234;5.484;2022-08-01T07:26:43;16.48;;;10.02;;
44068;SDS011;29738;51.234;5.484;2022-08-01T07:29:11;15.65;;;9.90;;
44068;SDS011;29738;51.234;5.484;2022-08-01T07:31:37;18.50;;;10.18;;
44068;SDS011;29738;51.234;5.484;2022-08-01T07:34:03;15.35;;;9.82;;
44068;SDS011;29738;51.234;5.484;2022-08-01T07:36:29;17.52;;;9.25;;
44068;SDS011;29738;51.234;5.484;2022-08-01T07:38:55;15.32;;;8.93;;
44068;SDS011;29738;51.234;5.484;2022-08-01T07:41:20;15.77;;;9.10;;
44068;SDS011;29738;51.234;5.484;2022-08-01T07:43:46;13.68;;;8.02;;
44068;SDS011;29738;51.234;5.484;2022-08-01T07:46:15;10.82;;;7.28;;
44068;SDS011;29738;51.234;5.484;2022-08-01T07:48:42;10.65;;;6.70;;
44068;SDS011;29738;51.234;5.484;2022-08-01T07:51:08;11.30;;;6.88;;
44068;SDS011;29738;51.234;5.484;2022-08-01T07:53:35;12.27;;;8.30;;
44068;SDS011;29738;51.234;5.484;2022-08-01T07:56:01;11.93;;;6.07;;
44068;SDS011;29738;51.234;5.484;2022-08-01T07:58:29;13.20;;;7.65;;
44068;SDS011;29738;51.234;5.484;2022-08-01T08:00:55;13.35;;;7.53;;
44068;SDS011;29738;51.234;5.484;2022-08-01T08:03:21;11.40;;;7.07;;
44068;SDS011;29738;51.234;5.484;2022-08-01T08:05:47;8.98;;;5.05;;
44068;SDS011;29738;51.234;5.484;2022-08-01T08:08:13;8.35;;;5.03;;
44068;SDS011;29738;51.234;5.484;2022-08-01T08:10:40;12.60;;;4.50;;
44068;SDS011;29738;51.234;5.484;2022-08-01T08:13:06;10.55;;;6.70;;
44068;SDS011;29738;51.234;5.484;2022-08-01T08:15:32;10.13;;;6.68;;
44068;SDS011;29738;51.234;5.484;2022-08-01T08:17:57;11.05;;;6.63;;
44068;SDS011;29738;51.234;5.484;2022-08-01T08:20:23;11.15;;;7.55;;
44068;SDS011;29738;51.234;5.484;2022-08-01T08:22:54;12.18;;;7.70;;
44068;SDS011;29738;51.234;5.484;2022-08-01T08:25:20;11.20;;;7.18;;
44068;SDS011;29738;51.234;5.484;2022-08-01T08:27:47;11.75;;;6.97;;
44068;SDS011;29738;51.234;5.484;2022-08-01T08:30:13;10.43;;;6.63;;
44068;SDS011;29738;51.234;5.484;2022-08-01T08:32:39;9.23;;;5.93;;
44068;SDS011;29738;51.234;5.484;2022-08-01T08:35:06;8.15;;;5.38;;
44068;SDS011;29738;51.234;5.484;2022-08-01T08:37:33;9.43;;;5.38;;
44068;SDS011;29738;51.234;5.484;2022-08-01T08:40:00;8.82;;;5.22;;
44068;SDS011;29738;51.234;5.484;2022-08-01T08:42:26;7.07;;;4.10;;
44068;SDS011;29738;51.234;5.484;2022-08-01T08:44:52;8.43;;;5.03;;
44068;SDS011;29738;51.234;5.484;2022-08-01T08:47:20;6.03;;;3.13;;
44068;SDS011;29738;51.234;5.484;2022-08-01T08:49:48;5.63;;;2.83;;
44068;SDS011;29738;51.234;5.484;2022-08-01T08:52:17;5.85;;;2.90;;
44068;SDS011;29738;51.234;5.484;2022-08-01T08:54:45;4.10;;;1.90;;
44068;SDS011;29738;51.234;5.484;2022-08-01T08:57:13;6.35;;;3.03;;
44068;SDS011;29738;51.234;5.484;2022-08-01T08:59:40;5.35;;;2.75;;
44068;SDS011;29738;51.234;5.484;2022-08-01T09:02:08;5.55;;;3.28;;
44068;SDS011;29738;51.234;5.484;2022-08-01T09:04:36;6.40;;;4.07;;
44068;SDS011;29738;51.234;5.484;2022-08-01T09:07:04;6.88;;;4.30;;
44068;SDS011;29738;51.234;5.484;2022-08-01T09:09:30;8.05;;;5.03;;
44068;SDS011;29738;51.234;5.484;2022-08-01T09:11:56;7.75;;;4.70;;
44068;SDS011;29738;51.234;5.484;2022-08-01T09:14:23;7.72;;;4.20;;
44068;SDS011;29738;51.234;5.484;2022-08-01T09:17:09;6.90;;;3.63;;
44068;SDS011;29738;51.234;5.484;2022-08-01T09:19:37;6.72;;;3.60;;
44068;SDS011;29738;51.234;5.484;2022-08-01T09:22:09;6.57;;;3.65;;
44068;SDS011;29738;51.234;5.484;2022-08-01T09:24:37;6.75;;;3.85;;
44068;SDS011;29738;51.234;5.484;2022-08-01T09:27:19;7.00;;;3.75;;
44068;SDS011;29738;51.234;5.484;2022-08-01T09:29:48;6.97;;;4.15;;
44068;SDS011;29738;51.234;5.484;2022-08-01T09:32:16;7.07;;;4.20;;
44068;SDS011;29738;51.234;5.484;2022-08-01T09:34:41;6.22;;;3.90;;
44068;SDS011;29738;51.234;5.484;2022-08-01T09:37:11;7.13;;;4.18;;
44068;SDS011;29738;51.234;5.484;2022-08-01T09:39:39;7.93;;;4.53;;
44068;SDS011;29738;51.234;5.484;2022-08-01T09:42:21;9.15;;;5.07;;
44068;SDS011;29738;51.234;5.484;2022-08-01T09:44:49;8.13;;;4.70;;
44068;SDS011;29738;51.234;5.484;2022-08-01T09:47:15;7.57;;;4.50;;
44068;SDS011;29738;51.234;5.484;2022-08-01T09:49:42;7.10;;;4.72;;
44068;SDS011;29738;51.234;5.484;2022-08-01T09:54:52;7.15;;;4.60;;
44068;SDS011;29738;51.234;5.484;2022-08-01T09:57:21;7.15;;;4.50;;
44068;SDS011;29738;51.234;5.484;2022-08-01T09:59:48;7.60;;;5.13;;
44068;SDS011;29738;51.234;5.484;2022-08-01T10:02:26;7.43;;;4.85;;
44068;SDS011;29738;51.234;5.484;2022-08-01T10:04:56;7.65;;;5.32;;
44068;SDS011;29738;51.234;5.484;2022-08-01T10:07:22;7.13;;;5.05;;
44068;SDS011;29738;51.234;5.484;2022-08-01T10:09:48;7.00;;;5.10;;
44068;SDS011;29738;51.234;5.484;2022-08-01T10:12:18;8.40;;;5.20;;
44068;SDS011;29738;51.234;5.484;2022-08-01T10:14:47;7.90;;;6.00;;
44068;SDS011;29738;51.234;5.484;2022-08-01T10:17:20;8.85;;;5.93;;
44068;SDS011;29738;51.234;5.484;2022-08-01T10:19:50;6.95;;;5.25;;
44068;SDS011;29738;51.234;5.484;2022-08-01T10:22:19;7.20;;;5.43;;
44068;SDS011;29738;51.234;5.484;2022-08-01T10:24:50;7.20;;;5.07;;
44068;SDS011;29738;51.234;5.484;2022-08-01T10:27:19;6.80;;;4.97;;
44068;SDS011;29738;51.234;5.484;2022-08-01T10:29:51;6.20;;;4.40;;
44068;SDS011;29738;51.234;5.484;2022-08-01T10:32:22;6.72;;;4.68;;
44068;SDS011;29738;51.234;5.484;2022-08-01T10:34:49;5.75;;;3.83;;
44068;SDS011;29738;51.234;5.484;2022-08-01T10:37:15;5.15;;;3.28;;
44068;SDS011;29738;51.234;5.484;2022-08-01T10:39:42;5.65;;;3.75;;
44068;SDS011;29738;51.234;5.484;2022-08-01T10:42:09;5.43;;;3.47;;
44068;SDS011;29738;51.234;5.484;2022-08-01T10:44:36;4.90;;;3.40;;
44068;SDS011;29738;51.234;5.484;2022-08-01T10:47:10;5.60;;;3.22;;
44068;SDS011;29738;51.234;5.484;2022-08-01T10:49:43;4.50;;;2.80;;
44068;SDS011;29738;51.234;5.484;2022-08-01T10:52:19;5.10;;;3.40;;
44068;SDS011;29738;51.234;5.484;2022-08-01T10:54:45;6.47;;;4.07;;
44068;SDS011;29738;51.234;5.484;2022-08-01T10:57:11;5.40;;;3.72;;
44068;SDS011;29738;51.234;5.484;2022-08-01T10:59:48;4.97;;;3.38;;
44068;SDS011;29738;51.234;5.484;2022-08-01T11:02:29;5.20;;;3.22;;
44068;SDS011;29738;51.234;5.484;2022-08-01T11:05:04;5.35;;;3.30;;
44068;SDS011;29738;51.234;5.484;2022-08-01T11:12:55;4.07;;;2.40;;
44068;SDS011;29738;51.234;5.484;2022-08-01T11:15:21;4.80;;;2.47;;
44068;SDS011;29738;51.234;5.484;2022-08-01T11:17:52;4.78;;;2.50;;
44068;SDS011;29738;51.234;5.484;2022-08-01T11:30:39;4.60;;;2.70;;
44068;SDS011;29738;51.234;5.484;2022-08-01T11:33:06;5.35;;;2.75;;
44068;SDS011;29738;51.234;5.484;2022-08-01T11:35:32;4.80;;;3.35;;
44068;SDS011;29738;51.234;5.484;2022-08-01T11:38:22;4.82;;;3.35;;
44068;SDS011;29738;51.234;5.484;2022-08-01T11:43:55;5.95;;;3.50;;
44068;SDS011;29738;51.234;5.484;2022-08-01T11:46:47;4.95;;;3.30;;
44068;SDS011;29738;51.234;5.484;2022-08-01T11:54:51;6.07;;;2.53;;
44068;SDS011;29738;51.234;5.484;2022-08-01T11:57:21;4.30;;;2.10;;
44068;SDS011;29738;51.234;5.484;2022-08-01T11:59:50;4.43;;;2.40;;
44068;SDS011;29738;51.234;5.484;2022-08-01T12:02:27;4.70;;;2.40;;
44068;SDS011;29738;51.234;5.484;2022-08-01T12:05:00;6.22;;;2.40;;
44068;SDS011;29738;51.234;5.484;2022-08-01T12:07:31;4.68;;;2.17;;
44068;SDS011;29738;51.234;5.484;2022-08-01T12:10:06;5.85;;;2.25;;
44068;SDS011;29738;51.234;5.484;2022-08-01T12:12:33;4.75;;;2.45;;
44068;SDS011;29738;51.234;5.484;2022-08-01T12:15:00;4.82;;;2.25;;
44068;SDS011;29738;51.234;5.484;2022-08-01T12:17:35;5.85;;;3.05;;
44068;SDS011;29738;51.234;5.484;2022-08-01T12:20:03;6.05;;;2.50;;
44068;SDS011;29738;51.234;5.484;2022-08-01T12:22:31;6.43;;;2.28;;
44068;SDS011;29738;51.234;5.484;2022-08-01T12:25:04;5.57;;;2.55;;
44068;SDS011;29738;51.234;5.484;2022-08-01T12:27:32;4.40;;;1.90;;
44068;SDS011;29738;51.234;5.484;2022-08-01T12:29:59;3.70;;;1.67;;
44068;SDS011;29738;51.234;5.484;2022-08-01T12:32:29;5.40;;;1.92;;
44068;SDS011;29738;51.234;5.484;2022-08-01T12:34:56;4.87;;;2.00;;
44068;SDS011;29738;51.234;5.484;2022-08-01T12:37:29;4.53;;;2.40;;
44068;SDS011;29738;51.234;5.484;2022-08-01T12:39:56;4.28;;;1.90;;
44068;SDS011;29738;51.234;5.484;2022-08-01T12:42:22;4.22;;;2.20;;
44068;SDS011;29738;51.234;5.484;2022-08-01T12:44:49;3.97;;;1.75;;
44068;SDS011;29738;51.234;5.484;2022-08-01T12:47:17;4.60;;;2.00;;
44068;SDS011;29738;51.234;5.484;2022-08-01T12:49:45;6.65;;;1.95;;
44068;SDS011;29738;51.234;5.484;2022-08-01T12:52:12;6.32;;;1.98;;
44068;SDS011;29738;51.234;5.484;2022-08-01T12:57:37;5.78;;;2.00;;
44068;SDS011;29738;51.234;5.484;2022-08-01T13:00:05;3.90;;;1.73;;
44068;SDS011;29738;51.234;5.484;2022-08-01T13:02:32;5.05;;;1.80;;
44068;SDS011;29738;51.234;5.484;2022-08-01T13:04:58;5.28;;;2.05;;
44068;SDS011;29738;51.234;5.484;2022-08-01T13:07:34;4.00;;;1.67;;
44068;SDS011;29738;51.234;5.484;2022-08-01T13:10:05;4.03;;;1.80;;
44068;SDS011;29738;51.234;5.484;2022-08-01T13:12:31;4.15;;;2.00;;
44068;SDS011;29738;51.234;5.484;2022-08-01T13:14:57;4.82;;;1.98;;
44068;SDS011;29738;51.234;5.484;2022-08-01T13:17:33;4.30;;;1.88;;
44068;SDS011;29738;51.234;5.484;2022-08-01T13:20:03;4.07;;;2.00;;
44068;SDS011;29738;51.234;5.484;2022-08-01T13:22:34;4.35;;;1.90;;
44068;SDS011;29738;51.234;5.484;2022-08-01T13:25:11;5.43;;;2.10;;
44068;SDS011;29738;51.234;5.484;2022-08-01T13:27:37;4.28;;;2.00;;
44068;SDS011;29738;51.234;5.484;2022-08-01T13:30:17;4.03;;;1.90;;
44068;SDS011;29738;51.234;5.484;2022-08-01T13:32:44;5.03;;;2.05;;
44068;SDS011;29738;51.234;5.484;2022-08-01T13:35:25;5.40;;;2.20;;
44068;SDS011;29738;51.234;5.484;2022-08-01T13:37:51;4.10;;;1.90;;
44068;SDS011;29738;51.234;5.484;2022-08-01T13:40:24;4.28;;;1.67;;
44068;SDS011;29738;51.234;5.484;2022-08-01T13:42:51;5.85;;;2.00;;
44068;SDS011;29738;51.234;5.484;2022-08-01T13:45:18;4.55;;;1.90;;
44068;SDS011;29738;51.234;5.484;2022-08-01T13:47:44;5.18;;;1.90;;
44068;SDS011;29738;51.234;5.484;2022-08-01T13:50:10;4.50;;;1.70;;
44068;SDS011;29738;51.234;5.484;2022-08-01T13:52:35;4.28;;;1.75;;
44068;SDS011;29738;51.234;5.484;2022-08-01T13:55:01;5.32;;;2.35;;
44068;SDS011;29738;51.234;5.484;2022-08-01T13:57:28;4.63;;;1.80;;
44068;SDS011;29738;51.234;5.484;2022-08-01T13:59:53;4.90;;;1.67;;
44068;SDS011;29738;51.234;5.484;2022-08-01T14:02:19;4.65;;;2.03;;
44068;SDS011;29738;51.234;5.484;2022-08-01T14:04:46;4.78;;;2.30;;
44068;SDS011;29738;51.234;5.484;2022-08-01T14:07:12;4.07;;;1.98;;
44068;SDS011;29738;51.234;5.484;2022-08-01T14:09:38;4.20;;;1.90;;
44068;SDS011;29738;51.234;5.484;2022-08-01T14:12:03;4.50;;;2.20;;
44068;SDS011;29738;51.234;5.484;2022-08-01T14:14:29;4.38;;;1.65;;
44068;SDS011;29738;51.234;5.484;2022-08-01T14:16:55;4.95;;;2.20;;
44068;SDS011;29738;51.234;5.484;2022-08-01T14:19:21;4.82;;;1.90;;
44068;SDS011;29738;51.234;5.484;2022-08-01T14:21:47;4.75;;;1.80;;
44068;SDS011;29738;51.234;5.484;2022-08-01T14:24:13;5.20;;;2.20;;
44068;SDS011;29738;51.234;5.484;2022-08-01T14:26:39;4.20;;;2.20;;
44068;SDS011;29738;51.234;5.484;2022-08-01T14:29:04;4.28;;;2.10;;
44068;SDS011;29738;51.234;5.484;2022-08-01T14:31:30;4.97;;;1.90;;
44068;SDS011;29738;51.234;5.484;2022-08-01T14:33:56;4.85;;;2.25;;
44068;SDS011;29738;51.234;5.484;2022-08-01T14:36:22;4.50;;;2.10;;
44068;SDS011;29738;51.234;5.484;2022-08-01T14:38:48;5.13;;;2.20;;
44068;SDS011;29738;51.234;5.484;2022-08-01T14:41:14;4.65;;;2.30;;
44068;SDS011;29738;51.234;5.484;2022-08-01T14:43:40;5.45;;;2.45;;
44068;SDS011;29738;51.234;5.484;2022-08-01T14:46:06;4.60;;;1.83;;
44068;SDS011;29738;51.234;5.484;2022-08-01T14:48:34;5.85;;;1.95;;
44068;SDS011;29738;51.234;5.484;2022-08-01T14:51:00;4.20;;;1.80;;
44068;SDS011;29738;51.234;5.484;2022-08-01T14:53:29;5.47;;;2.40;;
44068;SDS011;29738;51.234;5.484;2022-08-01T14:55:55;5.68;;;2.20;;
44068;SDS011;29738;51.234;5.484;2022-08-01T14:58:21;5.78;;;2.17;;
44068;SDS011;29738;51.234;5.484;2022-08-01T15:00:47;4.80;;;2.20;;
44068;SDS011;29738;51.234;5.484;2022-08-01T15:03:13;5.50;;;2.38;;
44068;SDS011;29738;51.234;5.484;2022-08-01T15:05:38;4.70;;;2.38;;
44068;SDS011;29738;51.234;5.484;2022-08-01T15:08:05;4.63;;;2.22;;
44068;SDS011;29738;51.234;5.484;2022-08-01T15:10:31;5.30;;;2.33;;
44068;SDS011;29738;51.234;5.484;2022-08-01T15:12:57;8.43;;;2.45;;
44068;SDS011;29738;51.234;5.484;2022-08-01T15:15:25;4.90;;;2.25;;
44068;SDS011;29738;51.234;5.484;2022-08-01T15:17:52;5.65;;;2.42;;
44068;SDS011;29738;51.234;5.484;2022-08-01T15:20:18;6.75;;;2.80;;
44068;SDS011;29738;51.234;5.484;2022-08-01T15:22:44;6.90;;;2.90;;
44068;SDS011;29738;51.234;5.484;2022-08-01T15:25:10;5.63;;;2.55;;